sensor_id;sensor_type;location;lat;lon;timestamp;pressure;altitude;pressure_sealevel;temperature;humidity
7026;BME280;3554;42.132;24.786;2023-02-14T00:00:22;100788.50;;;4.40;100.00
7026;BME280;3554;42.132;24.786;2023-02-14T00:02:48;100773.75;;;4.30;100.00
7026;BME280;3554;42.132;24.786;2023-02-14T00:05:17;100778.13;;;4.38;100.00
7026;BME280;3554;42.132;24.786;2023-02-14T00:07:43;100777.31;;;4.43;100.00
7026;BME280;3554;42.132;24.786;2023-02-14T00:10:10;100771.31;;;4.51;100.00
7026;BME280;3554;42.132;24.786;2023-02-14T00:12:37;100771.34;;;4.59;100.00
7026;BME280;3554;42.132;24.786;2023-02-14T00:15:04;100763.53;;;4.51;100.00
7026;BME280;3554;42.132;24.786;2023-02-14T00:17:50;100757.44;;;4.45;100.00
7026;BME280;3554;42.132;24.786;2023-02-14T00:20:19;100773.91;;;4.54;100.00
7026;BME280;3554;42.132;24.786;2023-02-14T00:22:46;100768.69;;;4.48;100.00
7026;BME280;3554;42.132;24.786;2023-02-14T00:25:13;100779.03;;;4.42;100.00
7026;BME280;3554;42.132;24.786;2023-02-14T00:27:40;100759.97;;;4.34;100.00
7026;BME280;3554;42.132;24.786;2023-02-14T00:30:07;100766.00;;;4.33;100.00
7026;BME280;3554;42.132;24.786;2023-02-14T00:32:36;100774.66;;;4.36;100.00
7026;BME280;3554;42.132;24.786;2023-02-14T00:35:03;100767.75;;;4.35;100.00
7026;BME280;3554;42.132;24.786;2023-02-14T00:37:32;100755.56;;;4.25;100.00
7026;BME280;3554;42.132;24.786;2023-02-14T00:39:58;100771.22;;;4.38;100.00
7026;BME280;3554;42.132;24.786;2023-02-14T00:42:25;100768.56;;;4.30;100.00
7026;BME280;3554;42.132;24.786;2023-02-14T00:44:52;100769.41;;;4.26;100.00
7026;BME280;3554;42.132;24.786;2023-02-14T00:47:18;100772.06;;;4.36;100.00
7026;BME280;3554;42.132;24.786;2023-02-14T00:49:45;100780.72;;;4.38;100.00
7026;BME280;3554;42.132;24.786;2023-02-14T00:52:12;100783.38;;;4.46;100.00
7026;BME280;3554;42.132;24.786;2023-02-14T00:54:40;100782.50;;;4.43;100.00
7026;BME280;3554;42.132;24.786;2023-02-14T00:57:07;100781.59;;;4.38;100.00
7026;BME280;3554;42.132;24.786;2023-02-14T00:59:34;100783.31;;;4.40;100.00
7026;BME280;3554;42.132;24.786;2023-02-14T01:02:00;100788.50;;;4.40;100.00
7026;BME280;3554;42.132;24.786;2023-02-14T01:04:27;100791.06;;;4.35;100.00
7026;BME280;3554;42.132;24.786;2023-02-14T01:06:54;100776.34;;;4.31;100.00
7026;BME280;3554;42.132;24.786;2023-02-14T01:09:21;100781.59;;;4.38;100.00
7026;BME280;3554;42.132;24.786;2023-02-14T01:11:49;100779.91;;;4.43;100.00
7026;BME280;3554;42.132;24.786;2023-02-14T01:14:16;100772.06;;;4.32;100.00
7026;BME280;3554;42.132;24.786;2023-02-14T01:16:42;100714.00;;;4.07;100.00
7026;BME280;3554;42.132;24.786;2023-02-14T01:19:09;100763.44;;;4.36;100.00
7026;BME280;3554;42.132;24.786;2023-02-14T01:21:36;100757.31;;;4.26;100.00
7026;BME280;3554;42.132;24.786;2023-02-14T01:24:05;100751.25;;;4.23;100.00
7026;BME280;3554;42.132;24.786;2023-02-14T01:26:33;100756.44;;;4.27;100.00
7026;BME280;3554;42.132;24.786;2023-02-14T01:29:02;100746.06;;;4.24;100.00
7026;BME280;3554;42.132;24.786;2023-02-14T01:31:31;100736.47;;;4.11;100.00
7026;BME280;3554;42.132;24.786;2023-02-14T01:33:58;100726.97;;;4.12;100.00
7026;BME280;3554;42.132;24.786;2023-02-14T01:36:26;100750.31;;;4.12;100.00
7026;BME280;3554;42.132;24.786;2023-02-14T01:38:55;100720.03;;;4.03;100.00
7026;BME280;3554;42.132;24.786;2023-02-14T01:41:23;100752.06;;;4.13;100.00
7026;BME280;3554;42.132;24.786;2023-02-14T01:43:53;100750.34;;;4.16;100.00
7026;BME280;3554;42.132;24.786;2023-02-14T01:46:22;100749.47;;;4.17;100.00
7026;BME280;3554;42.132;24.786;2023-02-14T01:48:49;100720.91;;;4.07;100.00
7026;BME280;3554;42.132;24.786;2023-02-14T01:51:19;100753.91;;;4.32;100.00
7026;BME280;3554;42.132;24.786;2023-02-14T01:53:47;100755.63;;;4.34;100.00
7026;BME280;3554;42.132;24.786;2023-02-14T01:56:20;100750.50;;;4.38;100.00
7026;BME280;3554;42.132;24.786;2023-02-14T01:58:52;100734.06;;;4.34;100.00
7026;BME280;3554;42.132;24.786;2023-02-14T02:01:22;100724.53;;;4.31;100.00
7026;BME280;3554;42.132;24.786;2023-02-14T02:03:50;100726.28;;;4.32;100.00
7026;BME280;3554;42.132;24.786;2023-02-14T02:06:22;100725.47;;;4.41;100.00
7026;BME280;3554;42.132;24.786;2023-02-14T02:08:59;100705.53;;;4.32;100.00
7026;BME280;3554;42.132;24.786;2023-02-14T02:11:28;100696.84;;;4.27;100.00
7026;BME280;3554;42.132;24.786;2023-02-14T02:13:55;100714.22;;;4.41;100.00
7026;BME280;3554;42.132;24.786;2023-02-14T02:16:44;100700.44;;;4.45;100.00
7026;BME280;3554;42.132;24.786;2023-02-14T02:19:36;100703.84;;;4.44;100.00
7026;BME280;3554;42.132;24.786;2023-02-14T02:22:18;100707.31;;;4.47;100.00
7026;BME280;3554;42.132;24.786;2023-02-14T02:24:54;100692.53;;;4.29;100.00
7026;BME280;3554;42.132;24.786;2023-02-14T02:27:36;100657.03;;;4.10;100.00
7026;BME280;3554;42.132;24.786;2023-02-14T02:36:27;100684.00;;;4.44;100.00
7026;BME280;3554;42.132;24.786;2023-02-14T02:39:07;100687.47;;;4.49;100.00
7026;BME280;3554;42.132;24.786;2023-02-14T02:41:46;100689.22;;;4.50;100.00
7026;BME280;3554;42.132;24.786;2023-02-14T02:44:17;100694.41;;;4.56;100.00
7026;BME280;3554;42.132;24.786;2023-02-14T02:46:54;100699.59;;;4.58;100.00
7026;BME280;3554;42.132;24.786;2023-02-14T02:49:35;100699.59;;;4.56;100.00
7026;BME280;3554;42.132;24.786;2023-02-14T02:52:30;100697.00;;;4.55;100.00
7026;BME280;3554;42.132;24.786;2023-02-14T02:55:23;100702.19;;;4.55;100.00
7026;BME280;3554;42.132;24.786;2023-02-14T02:57:52;100690.00;;;4.38;100.00
7026;BME280;3554;42.132;24.786;2023-02-14T03:00:21;100705.63;;;4.51;100.00
7026;BME280;3554;42.132;24.786;2023-02-14T03:02:51;100699.53;;;4.44;100.00
7026;BME280;3554;42.132;24.786;2023-02-14T03:05:39;100687.47;;;4.48;100.00
7026;BME280;3554;42.132;24.786;2023-02-14T03:08:07;100682.25;;;4.42;100.00
7026;BME280;3554;42.132;24.786;2023-02-14T03:10:37;100680.53;;;4.44;100.00
7026;BME280;3554;42.132;24.786;2023-02-14T03:13:23;100684.00;;;4.46;100.00
7026;BME280;3554;42.132;24.786;2023-02-14T03:15:56;100659.75;;;4.33;100.00
7026;BME280;3554;42.132;24.786;2023-02-14T03:18:53;100674.47;;;4.40;100.00
7026;BME280;3554;42.132;24.786;2023-02-14T03:21:30;100675.28;;;4.33;100.00
7026;BME280;3554;42.132;24.786;2023-02-14T03:24:05;100668.38;;;4.32;100.00
7026;BME280;3554;42.132;24.786;2023-02-14T03:26:39;100660.56;;;4.20;100.00
7026;BME280;3554;42.132;24.786;2023-02-14T03:29:15;100664.00;;;4.20;100.00
7026;BME280;3554;42.132;24.786;2023-02-14T03:31:54;100658.81;;;4.17;100.00
7026;BME280;3554;42.132;24.786;2023-02-14T03:34:29;100663.97;;;4.14;100.00
7026;BME280;3554;42.132;24.786;2023-02-14T03:37:01;100652.75;;;4.17;100.00
7026;BME280;3554;42.132;24.786;2023-02-14T03:39:34;100651.00;;;4.13;100.00
7026;BME280;3554;42.132;24.786;2023-02-14T03:42:07;100653.63;;;4.16;100.00
7026;BME280;3554;42.132;24.786;2023-02-14T03:44:38;100656.16;;;4.10;100.00
7026;BME280;3554;42.132;24.786;2023-02-14T03:47:08;100658.78;;;4.14;100.00
7026;BME280;3554;42.132;24.786;2023-02-14T03:49:40;100643.22;;;4.11;100.00
7026;BME280;3554;42.132;24.786;2023-02-14T03:52:09;100650.13;;;4.12;100.00
7026;BME280;3554;42.132;24.786;2023-02-14T03:54:39;100655.31;;;4.12;100.00
7026;BME280;3554;42.132;24.786;2023-02-14T03:57:15;100669.16;;;4.16;100.00
7026;BME280;3554;42.132;24.786;2023-02-14T03:59:45;100664.81;;;4.13;100.00
7026;BME280;3554;42.132;24.786;2023-02-14T04:02:15;100666.56;;;4.14;100.00
7026;BME280;3554;42.132;24.786;2023-02-14T04:04:45;100664.84;;;4.16;100.00
7026;BME280;3554;42.132;24.786;2023-02-14T04:07:16;100652.69;;;4.09;100.00
7026;BME280;3554;42.132;24.786;2023-02-14T04:09:45;100629.38;;;4.06;100.00
7026;BME280;3554;42.132;24.786;2023-02-14T04:12:13;100637.13;;;4.05;100.00
7026;BME280;3554;42.132;24.786;2023-02-14T04:14:40;100637.19;;;4.12;100.00
7026;BME280;3554;42.132;24.786;2023-02-14T04:17:07;100597.38;;;3.97;100.00
7026;BME280;3554;42.132;24.786;2023-02-14T04:19:51;100651.03;;;4.14;100.00
7026;BME280;3554;42.132;24.786;2023-02-14T04:22:18;100632.06;;;4.20;100.00
7026;BME280;3554;42.132;24.786;2023-02-14T04:24:46;100633.75;;;4.18;100.00
7026;BME280;3554;42.132;24.786;2023-02-14T04:27:13;100637.25;;;4.23;100.00
7026;BME280;3554;42.132;24.786;2023-02-14T04:29:42;100619.00;;;4.09;100.00
7026;BME280;3554;42.132;24.786;2023-02-14T04:32:12;100613.81;;;4.06;100.00
7026;BME280;3554;42.132;24.786;2023-02-14T04:34:39;100632.00;;;4.12;100.00
7026;BME280;3554;42.132;24.786;2023-02-14T04:37:06;100622.47;;;4.04;100.00
7026;BME280;3554;42.132;24.786;2023-02-14T04:39:33;100593.03;;;3.94;100.00
7026;BME280;3554;42.132;24.786;2023-02-14T04:42:02;100570.56;;;3.86;100.00
7026;BME280;3554;42.132;24.786;2023-02-14T04:44:30;100618.13;;;4.06;100.00
7026;BME280;3554;42.132;24.786;2023-02-14T04:46:58;100613.81;;;4.08;100.00
7026;BME280;3554;42.132;24.786;2023-02-14T04:49:25;100614.69;;;4.07;100.00
7026;BME280;3554;42.132;24.786;2023-02-14T04:51:52;100610.41;;;4.07;100.00
7026;BME280;3554;42.132;24.786;2023-02-14T04:54:19;100617.31;;;4.11;100.00
7026;BME280;3554;42.132;24.786;2023-02-14T04:56:46;100617.28;;;4.10;100.00
7026;BME280;3554;42.132;24.786;2023-02-14T04:59:14;100608.69;;;4.12;100.00
7026;BME280;3554;42.132;24.786;2023-02-14T05:01:41;100604.34;;;4.08;100.00
7026;BME280;3554;42.132;24.786;2023-02-14T05:04:08;100606.97;;;4.14;100.00
7026;BME280;3554;42.132;24.786;2023-02-14T05:06:35;100600.91;;;4.15;100.00
7026;BME280;3554;42.132;24.786;2023-02-14T05:09:02;100585.38;;;4.11;100.00
7026;BME280;3554;42.132;24.786;2023-02-14T05:11:29;100586.25;;;4.17;100.00
7026;BME280;3554;42.132;24.786;2023-02-14T05:13:56;100589.72;;;4.18;100.00
7026;BME280;3554;42.132;24.786;2023-02-14T05:16:24;100588.84;;;4.20;100.00
7026;BME280;3554;42.132;24.786;2023-02-14T05:18:51;100599.22;;;4.17;100.00
7026;BME280;3554;42.132;24.786;2023-02-14T05:21:18;100580.16;;;4.05;100.00
7026;BME280;3554;42.132;24.786;2023-02-14T05:23:45;100604.34;;;4.11;100.00
7026;BME280;3554;42.132;24.786;2023-02-14T05:26:12;100600.03;;;4.09;100.00
7026;BME280;3554;42.132;24.786;2023-02-14T05:28:38;100607.84;;;4.18;100.00
7026;BME280;3554;42.132;24.786;2023-02-14T05:31:07;100605.22;;;4.10;100.00
7026;BME280;3554;42.132;24.786;2023-02-14T05:33:35;100573.16;;;3.86;100.00
7026;BME280;3554;42.132;24.786;2023-02-14T05:36:02;100601.75;;;4.07;100.00
7026;BME280;3554;42.132;24.786;2023-02-14T05:38:30;100599.13;;;4.01;100.00
7026;BME280;3554;42.132;24.786;2023-02-14T05:40:57;100599.16;;;4.04;100.00
7026;BME280;3554;42.132;24.786;2023-02-14T05:43:24;100605.22;;;4.09;100.00
7026;BME280;3554;42.132;24.786;2023-02-14T05:45:51;100594.91;;;4.16;100.00
7026;BME280;3554;42.132;24.786;2023-02-14T05:48:19;100598.34;;;4.15;100.00
7026;BME280;3554;42.132;24.786;2023-02-14T05:50:47;100600.09;;;4.16;100.00
7026;BME280;3554;42.132;24.786;2023-02-14T05:53:14;100590.59;;;4.27;100.00
7026;BME280;3554;42.132;24.786;2023-02-14T05:55:41;100582.88;;;4.33;100.00
7026;BME280;3554;42.132;24.786;2023-02-14T05:58:08;100554.31;;;4.23;100.00
7026;BME280;3554;42.132;24.786;2023-02-14T06:00:36;100562.13;;;4.35;100.00
7026;BME280;3554;42.132;24.786;2023-02-14T06:03:03;100575.16;;;4.56;100.00
7026;BME280;3554;42.132;24.786;2023-02-14T06:05:30;100579.50;;;4.65;100.00
7026;BME280;3554;42.132;24.786;2023-02-14T06:07:58;100568.28;;;4.72;100.00
7026;BME280;3554;42.132;24.786;2023-02-14T06:10:25;100568.31;;;4.85;100.00
7026;BME280;3554;42.132;24.786;2023-02-14T06:12:52;100577.84;;;4.97;100.00
7026;BME280;3554;42.132;24.786;2023-02-14T06:15:19;100583.91;;;5.06;100.00
7026;BME280;3554;42.132;24.786;2023-02-14T06:17:50;100591.69;;;5.08;100.00
7026;BME280;3554;42.132;24.786;2023-02-14T06:20:17;100549.28;;;4.97;100.00
7026;BME280;3554;42.132;24.786;2023-02-14T06:22:44;100589.09;;;5.29;100.00
7026;BME280;3554;42.132;24.786;2023-02-14T06:25:12;100582.19;;;5.29;100.00
7026;BME280;3554;42.132;24.786;2023-02-14T06:27:38;100581.34;;;5.33;100.00
7026;BME280;3554;42.132;24.786;2023-02-14T06:30:06;100574.38;;;5.43;100.00
7026;BME280;3554;42.132;24.786;2023-02-14T06:32:33;100572.66;;;5.50;100.00
7026;BME280;3554;42.132;24.786;2023-02-14T06:35:00;100557.09;;;5.50;100.00
7026;BME280;3554;42.132;24.786;2023-02-14T06:37:27;100571.78;;;5.64;100.00
7026;BME280;3554;42.132;24.786;2023-02-14T06:39:54;100571.75;;;5.73;100.00
7026;BME280;3554;42.132;24.786;2023-02-14T06:42:22;100571.75;;;5.79;100.00
7026;BME280;3554;42.132;24.786;2023-02-14T06:44:49;100562.25;;;5.87;100.00
7026;BME280;3554;42.132;24.786;2023-02-14T06:47:16;100570.88;;;5.89;100.00
7026;BME280;3554;42.132;24.786;2023-02-14T06:49:42;100584.72;;;5.97;100.00
7026;BME280;3554;42.132;24.786;2023-02-14T06:52:09;100580.34;;;6.11;100.00
7026;BME280;3554;42.132;24.786;2023-02-14T06:54:36;100582.06;;;6.12;100.00
7026;BME280;3554;42.132;24.786;2023-02-14T06:57:03;100585.50;;;6.23;100.00
7026;BME280;3554;42.132;24.786;2023-02-14T06:59:31;100575.97;;;6.31;100.00
7026;BME280;3554;42.132;24.786;2023-02-14T07:01:58;100572.47;;;6.34;100.00
7026;BME280;3554;42.132;24.786;2023-02-14T07:04:25;100575.91;;;6.43;100.00
7026;BME280;3554;42.132;24.786;2023-02-14T07:06:52;100581.09;;;6.42;100.00
7026;BME280;3554;42.132;24.786;2023-02-14T07:09:18;100585.44;;;6.46;100.00
7026;BME280;3554;42.132;24.786;2023-02-14T07:11:45;100555.94;;;6.45;100.00
7026;BME280;3554;42.132;24.786;2023-02-14T07:14:13;100564.56;;;6.57;100.00
7026;BME280;3554;42.132;24.786;2023-02-14T07:16:41;100574.03;;;6.73;100.00
7026;BME280;3554;42.132;24.786;2023-02-14T07:19:08;100570.53;;;6.75;100.00
7026;BME280;3554;42.132;24.786;2023-02-14T07:21:34;100579.13;;;6.86;100.00
7026;BME280;3554;42.132;24.786;2023-02-14T07:24:01;100526.34;;;6.68;100.00
7026;BME280;3554;42.132;24.786;2023-02-14T07:26:28;100583.41;;;6.93;100.00
7026;BME280;3554;42.132;24.786;2023-02-14T07:28:55;100585.09;;;7.02;100.00
7026;BME280;3554;42.132;24.786;2023-02-14T07:31:21;100579.81;;;7.15;100.00
7026;BME280;3554;42.132;24.786;2023-02-14T07:33:50;100574.56;;;7.18;99.96
7026;BME280;3554;42.132;24.786;2023-02-14T07:36:17;100578.88;;;7.19;100.00
7026;BME280;3554;42.132;24.786;2023-02-14T07:38:44;100557.19;;;7.20;99.16
7026;BME280;3554;42.132;24.786;2023-02-14T07:41:11;100555.38;;;7.28;99.75
7026;BME280;3554;42.132;24.786;2023-02-14T07:43:38;100570.06;;;7.40;99.72
7026;BME280;3554;42.132;24.786;2023-02-14T07:46:05;100558.75;;;7.39;100.00
7026;BME280;3554;42.132;24.786;2023-02-14T07:48:32;100563.09;;;7.42;100.00
7026;BME280;3554;42.132;24.786;2023-02-14T07:51:01;100571.75;;;7.44;99.88
7026;BME280;3554;42.132;24.786;2023-02-14T07:53:27;100569.09;;;7.48;100.00
7026;BME280;3554;42.132;24.786;2023-02-14T07:55:54;100523.34;;;7.17;98.44
7026;BME280;3554;42.132;24.786;2023-02-14T07:58:21;100561.34;;;7.44;99.51
7026;BME280;3554;42.132;24.786;2023-02-14T08:00:48;100562.13;;;7.50;99.24
7026;BME280;3554;42.132;24.786;2023-02-14T08:03:16;100558.56;;;7.64;98.55
7026;BME280;3554;42.132;24.786;2023-02-14T08:05:42;100555.88;;;7.70;98.41
7026;BME280;3554;42.132;24.786;2023-02-14T08:08:11;100562.84;;;7.66;98.33
7026;BME280;3554;42.132;24.786;2023-02-14T08:10:37;100559.41;;;7.63;99.13
7026;BME280;3554;42.132;24.786;2023-02-14T08:13:04;100569.78;;;7.70;98.15
7026;BME280;3554;42.132;24.786;2023-02-14T08:15:32;100549.03;;;7.56;98.94
7026;BME280;3554;42.132;24.786;2023-02-14T08:18:18;100558.56;;;7.60;99.83
7026;BME280;3554;42.132;24.786;2023-02-14T08:20:46;100573.97;;;7.82;97.21
7026;BME280;3554;42.132;24.786;2023-02-14T08:23:15;100579.94;;;7.94;96.96
7026;BME280;3554;42.132;24.786;2023-02-14T08:25:42;100592.91;;;8.02;95.88
7026;BME280;3554;42.132;24.786;2023-02-14T08:28:09;100597.34;;;7.94;96.43
7026;BME280;3554;42.132;24.786;2023-02-14T08:30:38;100587.69;;;8.02;97.42
7026;BME280;3554;42.132;24.786;2023-02-14T08:33:05;100593.69;;;8.07;96.99
7026;BME280;3554;42.132;24.786;2023-02-14T08:35:32;100590.06;;;8.24;97.33
7026;BME280;3554;42.132;24.786;2023-02-14T08:37:59;100590.88;;;8.29;95.79
7026;BME280;3554;42.132;24.786;2023-02-14T08:40:27;100589.81;;;8.45;94.59
7026;BME280;3554;42.132;24.786;2023-02-14T08:42:54;100598.53;;;8.43;95.77
7026;BME280;3554;42.132;24.786;2023-02-14T08:45:21;100600.97;;;8.55;93.89
7026;BME280;3554;42.132;24.786;2023-02-14T08:47:48;100612.94;;;8.71;91.18
7026;BME280;3554;42.132;24.786;2023-02-14T08:50:16;100602.31;;;8.85;91.05
7026;BME280;3554;42.132;24.786;2023-02-14T08:52:43;100599.72;;;8.83;90.62
7026;BME280;3554;42.132;24.786;2023-02-14T08:55:10;100580.63;;;8.80;90.62
7026;BME280;3554;42.132;24.786;2023-02-14T08:57:39;100592.56;;;8.99;89.12
7026;BME280;3554;42.132;24.786;2023-02-14T09:00:07;100556.22;;;8.84;87.31
7026;BME280;3554;42.132;24.786;2023-02-14T09:02:34;100585.53;;;9.01;86.75
7026;BME280;3554;42.132;24.786;2023-02-14T09:05:01;100581.13;;;9.04;87.99
7026;BME280;3554;42.132;24.786;2023-02-14T09:07:28;100581.78;;;9.20;86.42
7026;BME280;3554;42.132;24.786;2023-02-14T09:09:54;100558.50;;;9.05;86.32
7026;BME280;3554;42.132;24.786;2023-02-14T09:12:21;100561.03;;;9.11;87.07
7026;BME280;3554;42.132;24.786;2023-02-14T09:14:49;100562.59;;;9.21;86.78
7026;BME280;3554;42.132;24.786;2023-02-14T09:17:16;100547.78;;;9.23;85.37
7026;BME280;3554;42.132;24.786;2023-02-14T09:19:43;100548.41;;;9.37;85.12
7026;BME280;3554;42.132;24.786;2023-02-14T09:22:10;100556.91;;;9.49;83.30
7026;BME280;3554;42.132;24.786;2023-02-14T09:24:38;100550.84;;;9.47;83.90
7026;BME280;3554;42.132;24.786;2023-02-14T09:27:06;100547.09;;;9.62;84.25
7026;BME280;3554;42.132;24.786;2023-02-14T09:29:33;100551.34;;;9.67;83.92
7026;BME280;3554;42.132;24.786;2023-02-14T09:32:03;100547.78;;;9.73;82.73
7026;BME280;3554;42.132;24.786;2023-02-14T09:34:32;100515.81;;;9.57;81.43
7026;BME280;3554;42.132;24.786;2023-02-14T09:37:16;100532.41;;;9.55;81.35
7026;BME280;3554;42.132;24.786;2023-02-14T09:40:00;100527.81;;;9.67;81.43
7026;BME280;3554;42.132;24.786;2023-02-14T09:42:43;100518.28;;;9.65;79.49
7026;BME280;3554;42.132;24.786;2023-02-14T09:45:14;100510.41;;;9.66;79.44
7026;BME280;3554;42.132;24.786;2023-02-14T09:47:46;100499.91;;;9.69;79.92
7026;BME280;3554;42.132;24.786;2023-02-14T09:50:23;100534.75;;;9.68;79.21
7026;BME280;3554;42.132;24.786;2023-02-14T09:52:54;100449.09;;;9.38;79.84
7026;BME280;3554;42.132;24.786;2023-02-14T09:55:24;100523.31;;;9.77;78.56
7026;BME280;3554;42.132;24.786;2023-02-14T09:58:04;100510.72;;;9.96;78.73
7026;BME280;3554;42.132;24.786;2023-02-14T10:00:36;100513.91;;;10.11;77.26
7026;BME280;3554;42.132;24.786;2023-02-14T10:03:31;100491.50;;;9.98;77.42
7026;BME280;3554;42.132;24.786;2023-02-14T10:06:05;100484.25;;;10.12;76.54
7026;BME280;3554;42.132;24.786;2023-02-14T10:08:46;100498.22;;;10.13;76.23
7026;BME280;3554;42.132;24.786;2023-02-14T10:11:19;100490.38;;;10.11;76.75
7026;BME280;3554;42.132;24.786;2023-02-14T10:13:49;100466.88;;;10.08;76.33
7026;BME280;3554;42.132;24.786;2023-02-14T10:16:21;100470.13;;;10.21;76.57
7026;BME280;3554;42.132;24.786;2023-02-14T10:18:55;100472.88;;;10.13;76.05
7026;BME280;3554;42.132;24.786;2023-02-14T10:21:27;100469.47;;;10.08;76.61
7026;BME280;3554;42.132;24.786;2023-02-14T10:24:00;100473.75;;;10.14;75.92
7026;BME280;3554;42.132;24.786;2023-02-14T10:26:34;100477.13;;;10.19;75.42
7026;BME280;3554;42.132;24.786;2023-02-14T10:29:05;100468.63;;;10.09;76.55
7026;BME280;3554;42.132;24.786;2023-02-14T10:31:37;100474.25;;;10.32;76.32
7026;BME280;3554;42.132;24.786;2023-02-14T10:34:15;100470.75;;;10.32;76.42
7026;BME280;3554;42.132;24.786;2023-02-14T10:36:59;100467.03;;;10.42;75.69
7026;BME280;3554;42.132;24.786;2023-02-14T10:39:46;100463.53;;;10.43;74.29
7026;BME280;3554;42.132;24.786;2023-02-14T10:42:23;100452.06;;;10.47;72.55
7026;BME280;3554;42.132;24.786;2023-02-14T10:44:59;100439.19;;;10.39;74.58
7026;BME280;3554;42.132;24.786;2023-02-14T10:47:38;100438.41;;;10.36;73.63
7026;BME280;3554;42.132;24.786;2023-02-14T10:50:18;100456.72;;;10.72;73.84
7026;BME280;3554;42.132;24.786;2023-02-14T10:52:53;100455.00;;;10.70;74.21
7026;BME280;3554;42.132;24.786;2023-02-14T10:55:31;100448.78;;;10.75;74.42
7026;BME280;3554;42.132;24.786;2023-02-14T10:58:03;100430.00;;;10.58;70.88
7026;BME280;3554;42.132;24.786;2023-02-14T11:00:33;100442.56;;;10.44;71.51
7026;BME280;3554;42.132;24.786;2023-02-14T11:03:05;100426.00;;;10.42;72.71
7026;BME280;3554;42.132;24.786;2023-02-14T11:05:36;100437.28;;;10.46;72.89
7026;BME280;3554;42.132;24.786;2023-02-14T11:08:13;100419.03;;;10.43;73.77
7026;BME280;3554;42.132;24.786;2023-02-14T11:10:40;100434.63;;;10.47;73.56
7026;BME280;3554;42.132;24.786;2023-02-14T11:13:30;100418.81;;;10.52;72.26
7026;BME280;3554;42.132;24.786;2023-02-14T11:16:02;100417.09;;;10.51;72.90
7026;BME280;3554;42.132;24.786;2023-02-14T11:18:30;100425.50;;;10.63;72.54
7026;BME280;3554;42.132;24.786;2023-02-14T11:21:06;100416.13;;;10.55;70.52
7026;BME280;3554;42.132;24.786;2023-02-14T11:23:35;100408.16;;;10.59;71.02
7026;BME280;3554;42.132;24.786;2023-02-14T11:26:05;100386.38;;;10.57;72.10
7026;BME280;3554;42.132;24.786;2023-02-14T11:28:34;100416.00;;;10.59;71.21
7026;BME280;3554;42.132;24.786;2023-02-14T11:31:01;100407.41;;;10.54;72.70
7026;BME280;3554;42.132;24.786;2023-02-14T11:33:36;100403.22;;;10.47;74.23
7026;BME280;3554;42.132;24.786;2023-02-14T11:36:09;100389.16;;;10.51;75.22
7026;BME280;3554;42.132;24.786;2023-02-14T11:38:38;100388.00;;;10.26;75.92
7026;BME280;3554;42.132;24.786;2023-02-14T11:41:08;100409.47;;;10.40;76.90
7026;BME280;3554;42.132;24.786;2023-02-14T11:43:36;100410.19;;;10.47;76.03
7026;BME280;3554;42.132;24.786;2023-02-14T11:46:07;100405.00;;;10.45;76.31
7026;BME280;3554;42.132;24.786;2023-02-14T11:48:38;100401.50;;;10.45;75.79
7026;BME280;3554;42.132;24.786;2023-02-14T11:51:08;100402.28;;;10.48;74.57
7026;BME280;3554;42.132;24.786;2023-02-14T11:53:43;100386.00;;;10.37;76.43
7026;BME280;3554;42.132;24.786;2023-02-14T11:56:11;100395.41;;;10.46;77.22
7026;BME280;3554;42.132;24.786;2023-02-14T11:58:39;100373.41;;;10.53;76.76
7026;BME280;3554;42.132;24.786;2023-02-14T12:01:09;100378.91;;;10.42;78.58
7026;BME280;3554;42.132;24.786;2023-02-14T12:03:43;100364.91;;;10.43;78.36
7026;BME280;3554;42.132;24.786;2023-02-14T12:06:12;100384.56;;;10.24;76.79
7026;BME280;3554;42.132;24.786;2023-02-14T12:08:48;100374.94;;;10.26;77.99
7026;BME280;3554;42.132;24.786;2023-02-14T12:11:19;100354.81;;;10.28;78.57
7026;BME280;3554;42.132;24.786;2023-02-14T12:13:57;100363.75;;;10.18;78.77
7026;BME280;3554;42.132;24.786;2023-02-14T12:16:28;100351.03;;;10.40;77.73
7026;BME280;3554;42.132;24.786;2023-02-14T12:19:00;100367.47;;;10.45;74.79
7026;BME280;3554;42.132;24.786;2023-02-14T12:21:43;100359.69;;;10.43;74.91
7026;BME280;3554;42.132;24.786;2023-02-14T12:24:17;100354.75;;;10.31;76.16
7026;BME280;3554;42.132;24.786;2023-02-14T12:26:49;100374.63;;;10.38;76.22
7026;BME280;3554;42.132;24.786;2023-02-14T12:29:21;100369.78;;;10.22;74.57
7026;BME280;3554;42.132;24.786;2023-02-14T12:31:51;100346.53;;;10.10;75.32
7026;BME280;3554;42.132;24.786;2023-02-14T12:34:19;100367.81;;;10.31;74.84
7026;BME280;3554;42.132;24.786;2023-02-14T12:37:00;100367.97;;;10.25;73.19
7026;BME280;3554;42.132;24.786;2023-02-14T12:39:36;100352.13;;;10.31;74.75
7026;BME280;3554;42.132;24.786;2023-02-14T12:42:20;100368.34;;;10.45;75.75
7026;BME280;3554;42.132;24.786;2023-02-14T12:44:55;100372.31;;;10.26;76.28
7026;BME280;3554;42.132;24.786;2023-02-14T12:47:33;100369.78;;;10.22;77.52
7026;BME280;3554;42.132;24.786;2023-02-14T12:50:14;100357.66;;;10.19;76.47
7026;BME280;3554;42.132;24.786;2023-02-14T12:53:08;100351.13;;;10.37;76.42
7026;BME280;3554;42.132;24.786;2023-02-14T12:55:50;100356.91;;;10.49;76.70
7026;BME280;3554;42.132;24.786;2023-02-14T12:58:28;100334.31;;;10.45;76.13
7026;BME280;3554;42.132;24.786;2023-02-14T13:01:11;100343.06;;;10.46;76.64
7026;BME280;3554;42.132;24.786;2023-02-14T13:04:08;100268.97;;;10.07;77.22
7026;BME280;3554;42.132;24.786;2023-02-14T13:06:43;100329.47;;;10.30;77.86
7026;BME280;3554;42.132;24.786;2023-02-14T13:09:27;100330.53;;;10.23;78.53
7026;BME280;3554;42.132;24.786;2023-02-14T13:12:05;100364.16;;;10.38;78.70
7026;BME280;3554;42.132;24.786;2023-02-14T13:14:51;100352.47;;;10.18;78.05
7026;BME280;3554;42.132;24.786;2023-02-14T13:17:27;100336.06;;;10.08;79.68
7026;BME280;3554;42.132;24.786;2023-02-14T13:20:05;100348.94;;;10.19;80.49
7026;BME280;3554;42.132;24.786;2023-02-14T13:22:39;100356.91;;;10.14;79.54
7026;BME280;3554;42.132;24.786;2023-02-14T13:25:23;100349.09;;;10.11;80.63
7026;BME280;3554;42.132;24.786;2023-02-14T13:27:56;100348.31;;;10.09;80.97